Flight Track Log - Related Links

Times and Time Zones

All times are in EDT time to prevent confusion due to time zone crossing. See the SWA534 flight status page for this flight to view local times or setup timezone preferences in your user account.

Time Position Orientation Groundspeed Altitude Reporting Facility
EDT Latitude Longitude Course Direction KTS MPH feet Rate Location/Type
Sun 10:36:58 PM 45.6175 -122.6717 293° West 209 241 2,600  Level Seattle Center
Sun 10:37:58 PM 45.6475 -122.7458 300° West 217 250 5,600 2,926 Climbing Seattle Center
Sun 10:38:59 PM 45.6253 -122.8075 243° Southwest 247 284 8,500 2,400 Climbing Seattle Center
Sun 10:40:08 PM 45.5756 -122.7331 134° Southeast 280 322 10,800 1,754 Climbing Seattle Center
Sun 10:41:09 PM 45.5294 -122.6217 121° Southeast 315 362 12,300 2,213 Climbing Seattle Center
Sun 10:42:10 PM 45.4650 -122.4683 121° Southeast 370 426 15,300 2,705 Climbing Seattle Center
Sun 10:43:11 PM 45.4106 -122.3411 121° Southeast 376 433 17,800 2,164 Climbing Seattle Center
Sun 10:44:12 PM 45.3561 -122.2114 121° Southeast 380 437 19,700 1,967 Climbing Seattle Center
Sun 10:45:13 PM 45.2986 -122.0789 122° Southeast 391 450 21,800 1,820 Climbing Seattle Center
Sun 10:46:14 PM 45.2439 -121.9367 119° Southeast 404 465 23,400 1,636 Climbing Seattle Center
Sun 10:47:14 PM 45.2089 -121.7922 109° East 417 480 25,100 1,438 Climbing Seattle Center
Sun 10:48:15 PM 45.1675 -121.6361 111° Southeast 422 486 26,300 1,279 Climbing Seattle Center
Sun 10:49:16 PM 45.1239 -121.4708 110° East 445 512 27,700 1,328 Climbing Seattle Center
Sun 10:50:17 PM 45.0817 -121.3061 110° East 447 514 29,000 1,377 Climbing Seattle Center
Sun 10:51:18 PM 45.0286 -121.1031 110° East 460 529 30,500 1,475 Climbing Seattle Center
Sun 10:52:19 PM 44.9828 -120.9342 111° Southeast 463 533 32,000 1,426 Climbing Seattle Center
Sun 10:53:20 PM 44.9389 -120.7694 111° Southeast 453 521 33,400 984 Climbing Seattle Center
Sun 10:54:21 PM 44.8944 -120.6050 111° Southeast 451 519 34,000 689 Climbing Seattle Center
Sun 10:55:22 PM 44.8503 -120.4422 111° Southeast 448 516 34,800 1,033 Climbing Seattle Center
Sun 10:56:23 PM 44.8064 -120.2839 111° Southeast 440 506 36,100 1,033 Climbing Seattle Center
Sun 10:57:24 PM 44.7631 -120.1264 111° Southeast 440 506 36,900 446 Climbing Seattle Center
Sun 10:58:24 PM 44.7197 -119.9711 111° Southeast 436 502 37,000 50 Climbing Seattle Center
Sun 10:59:25 PM 44.6683 -119.7814 111° Southeast 438 504 37,000  Level Seattle Center
Sun 11:00:26 PM 44.6239 -119.6242 112° Southeast 439 505 37,000  Level Seattle Center
Sun 11:01:27 PM 44.5778 -119.4672 112° Southeast 437 503 37,000  Level Seattle Center
Sun 11:02:28 PM 44.5319 -119.3100 112° Southeast 437 503 37,000  Level Seattle Center
Sun 11:03:29 PM 44.4858 -119.1553 113° Southeast 433 498 37,000  Level Seattle Center
Sun 11:04:30 PM 44.4406 -118.9992 112° Southeast 435 501 37,000  Level Seattle Center
Sun 11:05:31 PM 44.3928 -118.8442 113° Southeast 434 499 37,000  Level Seattle Center
Sun 11:06:30 PM 44.3450 -118.6881 113° Southeast 436 502 37,000  Level Salt Lake Center
Sun 11:07:32 PM 44.2975 -118.5336 113° Southeast 435 501 37,000  Level Salt Lake Center
Sun 11:08:33 PM 44.2522 -118.3781 112° Southeast 436 502 37,000  Level Seattle Center
Sun 11:09:34 PM 44.2036 -118.2253 114° Southeast 434 499 37,000  Level Seattle Center
Sun 11:10:35 PM 44.1422 -118.0658 118° Southeast 434 499 37,000  Level Seattle Center
Sun 11:11:38 PM 44.0761 -117.8983 119° Southeast 444 511 37,000  Level Salt Lake Center
Sun 11:12:39 PM 44.0244 -117.7556 117° Southeast 435 501 37,000  Level Salt Lake Center
Sun 11:13:40 PM 43.9622 -117.5906 118° Southeast 434 499 37,000  Level Salt Lake Center
Sun 11:14:42 PM 43.9083 -117.4503 118° Southeast 432 497 37,000  Level Salt Lake Center
Sun 11:15:43 PM 43.8547 -117.3078 118° Southeast 436 502 37,000  Level Salt Lake Center
Sun 11:16:44 PM 43.7919 -117.1453 118° Southeast 431 496 37,000  Level Salt Lake Center
Sun 11:17:46 PM 43.7397 -117.0072 118° Southeast 427 491 37,000  Level Salt Lake Center
Sun 11:18:47 PM 43.6767 -116.8461 118° Southeast 426 490 37,000  Level Salt Lake Center
Sun 11:19:48 PM 43.6236 -116.7100 118° Southeast 425 489 37,000  Level Salt Lake Center
Sun 11:20:49 PM 43.5622 -116.5500 118° Southeast 423 487 37,000  Level Salt Lake Center
Sun 11:21:51 PM 43.5089 -116.4147 118° Southeast 420 483 37,000  Level Salt Lake Center
Sun 11:22:52 PM 43.4556 -116.2800 119° Southeast 419 482 37,000  Level Salt Lake Center
Sun 11:23:53 PM 43.3925 -116.1219 119° Southeast 424 488 37,000  Level Salt Lake Center
Sun 11:24:54 PM 43.3378 -115.9850 119° Southeast 427 491 37,000  Level Salt Lake Center
Sun 11:25:56 PM 43.2739 -115.8222 118° Southeast 433 498 37,000  Level Salt Lake Center
Sun 11:26:57 PM 43.2172 -115.6819 119° Southeast 440 506 37,000  Level Salt Lake Center
Sun 11:27:58 PM 43.1600 -115.5419 119° Southeast 441 507 37,000  Level Salt Lake Center
Sun 11:28:59 PM 43.0928 -115.3797 120° Southeast 440 506 37,000  Level Salt Lake Center
Sun 11:30:00 PM 43.0356 -115.2406 119° Southeast 439 505 37,000  Level Salt Lake Center
Sun 11:31:02 PM 42.9783 -115.1019 119° Southeast 437 503 37,000  Level Salt Lake Center
Sun 11:32:03 PM 42.9131 -114.9425 119° Southeast 431 496 37,000  Level Salt Lake Center
Sun 11:33:04 PM 42.8561 -114.8061 120° Southeast 433 498 37,000  Level Salt Lake Center
Sun 11:34:05 PM 42.7897 -114.6478 120° Southeast 431 496 37,000  Level Salt Lake Center
Sun 11:35:06 PM 42.7272 -114.5003 120° Southeast 435 501 37,000  Level Salt Lake Center
Sun 11:36:08 PM 42.6672 -114.3586 120° Southeast 434 499 37,000  Level Salt Lake Center
Sun 11:37:09 PM 42.6064 -114.2183 120° Southeast 433 498 37,000  Level Salt Lake Center
Sun 11:38:10 PM 42.5419 -114.0822 123° Southeast 427 491 37,000  Level Salt Lake Center
Sun 11:39:11 PM 42.4633 -113.9597 131° Southeast 430 495 37,000  Level Salt Lake Center
Sun 11:40:12 PM 42.3864 -113.8364 130° Southeast 430 495 37,000  Level Salt Lake Center
Sun 11:41:13 PM 42.3086 -113.7117 130° Southeast 434 499 37,000  Level Salt Lake Center
Sun 11:42:15 PM 42.2303 -113.5853 130° Southeast 438 504 37,000  Level Salt Lake Center
Sun 11:43:16 PM 42.1522 -113.4608 130° Southeast 437 503 37,000 -1,033 Level Salt Lake Center
Sun 11:44:17 PM 42.0728 -113.3344 130° Southeast 443 510 34,900 -2,902 Descending Salt Lake Center
Sun 11:45:18 PM 41.9767 -113.1814 130° Southeast 447 514 31,100 -3,246 Descending Salt Lake Center
Sun 11:46:19 PM 41.8936 -113.0528 131° Southeast 455 524 28,300 -2,607 Descending Salt Lake Center
Sun 11:47:20 PM 41.8144 -112.9286 131° Southeast 442 509 25,800 -2,341 Descending Salt Lake Center
Sun 11:48:22 PM 41.7383 -112.8092 130° Southeast 427 491 23,500 -2,293 Descending Salt Lake Center
Sun 11:49:23 PM 41.6636 -112.6950 131° Southeast 411 473 21,100 -2,350 Descending Salt Lake Center
Sun 11:50:22 PM 41.5942 -112.5736 127° Southeast 394 453 18,800 -2,157 Descending Salt Lake Center
Sun 11:50:52 PM 41.5614 -112.5247 132° Southeast 389 448 17,900 -1,714 Descending Salt Lake Center
Sun 11:51:25 PM 41.5217 -112.4794 140° Southeast 381 438 17,000 -574 Descending Salt Lake Center
Sun 11:52:26 PM 41.4325 -112.4078 149° Southeast 376 433 17,000 -689 Level Salt Lake Center
Sun 11:53:27 PM 41.3422 -112.3442 152° Southeast 366 421 15,600 -1,707 Descending Salt Lake Center
Sun 11:54:29 PM 41.2558 -112.2822 152° Southeast 355 409 13,500 -1,268 Descending Salt Lake Center
Sun 11:55:30 PM 41.1556 -112.2072 151° Southeast 347 399 13,000 -590 Descending Salt Lake Center
Sun 11:56:31 PM 41.0739 -112.1475 151° Southeast 335 386 12,300 -836 Descending Salt Lake Center
Sun 11:57:32 PM 40.9869 -112.1269 170° South 318 366 11,300 -639 Descending Salt Lake Center
Sun 11:58:33 PM 40.9056 -112.1100 171° South 295 339 11,000 -148 Descending Salt Lake Center
Sun 11:59:34 PM 40.8342 -112.1017 175° South 257 296 11,000 -146 Level Salt Lake Center
Mon 12:00:36 AM 40.7667 -112.0847 169° South 249 287 10,700 -780 Descending Salt Lake Center
Mon 12:01:37 AM 40.6997 -112.0678 169° South 245 282 9,400 -1,180 Descending Salt Lake Center
Mon 12:02:38 AM 40.6394 -112.0419 162° South 229 264 8,300 -1,328 Descending Salt Lake Center
Mon 12:03:39 AM 40.6597 -111.9656 71° East 203 234 6,700 -1,426 Descending Salt Lake Center
Mon 12:04:40 AM 40.7056 -111.9647 North 170 196 5,400 -984 Descending Salt Lake Center
Mon 12:05:41 AM 40.7481 -111.9700 355° North 156 180 4,700 -590 Descending Salt Lake Center
Mon 12:06:42 AM 40.7908 -111.9747 355° North 154 177 4,200 -492 Descending Salt Lake Center
Mon 12:08:00 AM 40.7884 -111.9778 180° South  Level Estimated

Login

Don't have an account? Register now (free) for customized features, flight alerts, and more!